Aérodrome :
LOGIN :

S'inscrire | Disclaimer

   EN    FR    IT 

 










Légende :    VFR   VFR Marginal   IFR   IFR Intensif   IFR Très Intensif
Visi : 
Plafond : 
>= 8 km
>= 3000ft
5 à 8 km
1000 à 3000 ft
1500m à 5 km
500 à 1000 ft
800 à 1500m
200 à 500 ft
< 800m
< 200 ft
Symboles :   Orages  Brouillard  Fortes neiges  Fortes précipitations  Vent > 20 kt
SIGMETs :   Divers  Orages  Givrage  Turbulence  Onde Orograph.  Cendres Volcan.







- Altitude de l'aérodrome : 194 ft


EBCV - Chièvres

DERNIER METAR :
  • 202133Z AUTO 18003KT 7000 NCD 07/06 Q1035 WHT

METARs EXPIRÉS :
  • 202112Z AUTO VRB02KT 7000 NCD 08/06 Q1035 WHT
  • 202055Z AUTO VRB01KT 9999 NCD 08/06 Q1035 BLU
  • 202025Z AUTO VRB02KT 9999 BKN032/// 10/08 Q1035 BLU
  • 201955Z AUTO VRB01KT 9999 OVC031/// 10/08 Q1035 BLU
  • 201925Z AUTO VRB01KT 9999 OVC031/// 11/08 Q1035 BLU
  • 201855Z AUTO VRB01KT 9999 OVC032/// 11/08 Q1034 BLU

TAF TAF EBCV
Valide du 20 à 19h jusqu'au 21 à 07h UTC


201541Z 2019/2107 VRB03KT 9999 BKN025
BECMG 2019/2021 FEW025 SCT035
BECMG 2022/2024 5000 BR
BECMG 2100/2101 4000 BR
BECMG 2101/2102 2500 BR BKN030
TEMPO 2102/2107 1200 BR MIFG SCT002 BKN030
PROB30
TEMPO 2102/2107 0200 FG BKN001 BKN030 BY EBWM
Pas de NOTAMs connus pour ce terrain.



MET'MAP, la Météo Aéronautique d'un coup d'oeil ! - Copyright ORBIFLY Décembre 2007 - Disclaimer

ORBIFLY MET'MAP TEAM :

Programmation & Développement : Alexandra Zaïnal
Conception & Développement : Baudouin d'Aumeries
Co-Programmation & Développement : Marc-Olivier Méhu
Soutien technique & logistique : Manuel Goepfert

Contact : metmap@orbifly.com




SOURCES & CREDITS :

   NOAA